The REAL Buckhead Road Race 5K 2017 oa

2017 The Real Buckhead Road Race 5K 5K

2017 The Real Buckhead Road Race 5K

Overall Finish List

April 01, 2017


Results By Classic Race Services, LLC Classic Race Services

5K

Place Name City Bib No Age Gender Age Group Total Time Pace
1 Zach Massey Buckhead GA 696 33 M 1 30-34 18:05.9 5:50/M
2 Brian O'Neal Grayson GA 166 47 M 1 45-49 18:12.4 5:52/M
3 Buddy Davis Gray GA 694 54 M 1 50-54 20:49.3 6:43/M
4 David Partington Fayetteville GA 685 56 M 1 55-59 21:35.6 6:58/M
5 Kelly Johnson Madison GA 699 41 F 1 40-44 22:35.6 7:17/M
6 Stacy Paine Madison GA 600 41 F 2 40-44 23:08.5 7:28/M
7 Brian Johnson Madison GA 698 43 M 1 40-44 23:24.5 7:33/M
8 Cory Thomas Madison GA 500 41 M 2 40-44 25:10.8 8:07/M
9 Rick Hayes Dahlonega GA 154 58 M 2 55-59 25:15.2 8:09/M
10 Mike Robinson Buckhead GA 687 49 M 2 45-49 25:30.5 8:14/M
11 Cheryl Vail Lawrenceville GA 192 71 F 1 70-74 25:45.2 8:18/M
12 Natasha Thomas Madison GA 684 35 F 1 35-39 26:19.9 8:29/M
13 Paul Guest Nicholson GA 697 54 M 2 50-54 26:46.9 8:38/M
14 Garrett Alliston Buckhead GA 495 15 M 1 15-19 27:01.5 8:43/M
15 Al Ludwick Loganville GA 159 66 M 1 65-69 27:15.9 8:47/M
16 Edward Cottongim Buckhead GA 497 37 M 1 35-39 27:35.7 8:54/M
17 Eli Wood Greensboro GA 195 19 M 2 15-19 27:43.6 8:56/M
18 John Mullis Commerce GA 165 44 M 3 40-44 29:05.0 9:23/M
19 Mark Thomas Atlanta GA 597 45 M 3 45-49 29:07.4 9:24/M
20 Hunter Strange Madison GA 599 14 M 1 11-14 29:13.9 9:25/M
21 Dave Badertscher Mcdonough GA 595 68 M 2 65-69 29:19.8 9:27/M
22 Joseph Pritchett Madison GA 799 36 M 2 35-39 29:24.7 9:29/M
23 Amber Reeves Covington GA 689 36 F 2 35-39 29:30.2 9:31/M
24 Larry Strange Eatonton GA 186 60 M 1 60-64 29:52.9 9:38/M
25 Tommy Gilstrap Mcdonough GA 692 60 M 2 60-64 30:14.9 9:45/M
26 Cadence Tyler Powder Springs GA 188 12 F 1 11-14 31:19.1 10:06/M
27 Talarie Hayes Madison GA 693 31 F 1 30-34 31:33.1 10:11/M
28 Chase McMahon Buckhead GA 162 18 M 3 15-19 31:46.5 10:15/M
29 Brianna Worley Madison GA 593 11 F 2 11-14 31:46.8 10:15/M
30 Veronica Doster Athens GA 149 55 F 1 55-59 31:51.7 10:16/M
31 Julie Alliston Buckhead GA 493 42 F 3 40-44 32:20.6 10:26/M
32 Donna Wood Greensboro GA 194 47 F 1 45-49 32:28.6 10:28/M
33 Martha Worley Covington GA 688 48 F 2 45-49 32:32.8 10:30/M
34 Derek Jesweak Bogart GA 592 45 M 4 45-49 32:44.5 10:34/M
35 Fox Ferrel Marietta GA 151 76 M 1 75-99 32:54.3 10:37/M
36 Trish Hobson Charlotte NC 155 50 F 1 50-54 33:15.9 10:44/M
37 Lida Ludwick Loganville GA 160 66 F 1 65-69 34:15.2 11:03/M
38 Randy Booth Athens GA 144 50 M 3 50-54 34:21.2 11:05/M
39 Linda Robinson Buckhead GA 686 37 F 3 35-39 34:37.1 11:10/M
40 Karen Griffith Madison GA 152 43 F 4 40-44 34:51.3 11:15/M
41 Rebecca Costa Statham GA 147 31 F 2 30-34 34:51.7 11:15/M
42 Anthony Krumpach Lawrenceville GA 158 36 M 3 35-39 35:01.0 11:18/M
43 Sue Chastain Danielsville GA 690 66 F 2 65-69 35:38.3 11:30/M
44 David Tyler Powder Springs GA 189 43 M 4 40-44 36:10.2 11:40/M
45 Todd McDonald Bishop GA 591 55 M 3 55-59 36:41.0 11:50/M
46 Shelby Scalia Cleveland GA 180 12 F 3 11-14 37:06.7 11:58/M
47 Bobbie McDonald Greensboro GA 598 67 F 3 65-69 37:08.8 11:59/M
48 Wayne Vail Lawrenceville GA 193 73 M 1 70-74 37:14.0 12:01/M
49 Kaleigh Sidwell Madison GA 184 29 F 1 25-29 37:18.7 12:02/M
50 Amanda Hughes Conyers GA 156 35 F 4 35-39 38:46.8 12:30/M
51 Ryleigh Thompson Loganville GA 589 9 F 1 0-10 38:55.4 12:33/M
52 Robin Bone Buckhead GA 488 48 F 3 45-49 39:08.3 12:37/M
53 Jennifer Scalia Cleveland GA 179 43 F 5 40-44 39:42.8 12:48/M
54 Jesica Dye 695 12 F 4 11-14 39:45.3 12:49/M
55 Lisa Stewart Madison GA 691 34 F 3 30-34 39:46.5 12:50/M
56 Kaitlyn McMahon Buckhead GA 163 15 F 1 15-19 39:47.2 12:50/M
57 Mark Polson Monroe GA 169 48 M 5 45-49 39:52.5 12:52/M
58 Greg Alliston 494 52 M 4 50-54 40:01.0 12:55/M
59 Heather Sloan Winterville GA 596 46 F 4 45-49 40:57.1 13:13/M
60 Tonya McMahon Buckhead GA 164 45 F 5 45-49 41:18.5 13:19/M
61 Teresa Jordan Eatonton GA 157 61 F 1 60-64 41:44.8 13:28/M
62 Sara Pennington Buckhead GA 198 29 F 2 25-29 42:07.8 13:35/M
63 Nikki Tinsley Covington GEORGIA 187 32 F 4 30-34 42:16.3 13:38/M
64 Reese Rice 197 14 M 2 11-14 42:41.1 13:46/M
65 Levi Allsiton 496 10 M 1 0-10 43:04.7 13:54/M
66 Ammie Bell Buckhead GA 489 26 F 3 25-29 44:02.0 14:12/M
67 Macie Alliston 492 8 F 2 0-10 44:02.8 14:12/M
68 Brianna Rice 196 12 F 5 11-14 44:18.5 14:17/M
69 Leigh Anne Bell Buckhead GA 491 48 F 6 45-49 45:27.2 14:40/M
70 Thomas Bell Buckhead GA 490 49 M 6 45-49 47:11.9 15:13/M
71 Ernest Smallman Canton GA 185 72 M 2 70-74 47:19.1 15:16/M
72 Charlene Cronic Madison GA 148 40 F 6 40-44 47:40.0 15:23/M
73 Tyler Thompson Loganville GA 590 16 M 4 15-19 48:00.8 15:29/M
74 Terri Rizzo Loganville GA 700 45 F 7 45-49 48:23.1 15:36/M
75 Colleen Shumake Buckhead GA 182 32 F 5 30-34 50:26.5 16:16/M
76 Connie Shumake Buckhead GA 183 70 F 2 70-74 50:28.0 16:17/M
77 Christie Burke Buckhead GA 145 42 F 7 40-44 50:30.0 16:17/M
78 Lorie Mitchell 499 36 F 5 35-39 52:45.0 17:01/M
79 Lacey Harper 498 36 F 6 35-39 52:45.9 17:01/M
80 Mandy Cronic Madison GA 200 43 F 8 40-44 56:09.4 18:07/M
81 Delaney Tyler Powder Springs GA 190 10 F 3 0-10 56:44.3 18:18/M
82 Nancy Tyler Powder Springs GA 191 40 F 9 40-44 57:28.5 18:32/M
83 Ginny Bell Powder Springs GA 143 43 F 10 40-44 57:31.0 18:33/M
84 Linda Pennington Buckhead GA 199 64 F 2 60-64 1:04:21.0 20:45/M